DUJ weather

DuBois Regional Airport
Dubois, Pennsylvania, United States

Public forecast

Using degrees Fahrenheit for public forecast. Weather courtesy of forecast.io.

Current aviation weather report (METAR) for DuBois Regional Airport

Retrieved 2020/07/09 15:53 UTC (52 minutes ago):

KDUJ 091553Z AUTO 13005KT 10SM CLR 29/19 A3003 RMK AO2 SLP152 T02890194

Aviation forecast (TAF) for DuBois Regional Airport

Retrieved 2020/07/09 12:40 UTC (4 hours ago):

TAF KDUJ 091138Z 0912/1012 VRB04KT P6SM FEW050 FM092000 16005KT P6SM VCTS SCT050CB FM100000 12003KT P6SM SCT070